Time;durP1;ratioP1;P1;durP2;ratioP2;P2;SDS_P1;SDS_P2;PMS_P1;PMS_P2;Temp;Humidity;BMP_temperature;BMP_pressure;BME280_temperature;BME280_humidity;BME280_pressure;Samples;Min_cycle;Max_cycle;Signal;HPM_P1;HPM_P2
2023/08/16 00:01:45;;;;;;;3.35;2.13;;;;;;;;;;5113435;28;20089;-64
2023/08/16 00:04:11;;;;;;;5.03;2.53;;;;;;;;;;5113038;28;20510;-64
2023/08/16 00:06:41;;;;;;;6.43;2.33;;;;;;;;;;5112985;28;20062;-64
2023/08/16 00:09:08;;;;;;;4.82;2.40;;;;;;;;;;5113312;28;20532;-64
2023/08/16 00:11:34;;;;;;;5.68;2.33;;;;;;;;;;5113303;28;20419;-64
2023/08/16 00:14:00;;;;;;;5.70;2.58;;;;;;;;;;5113318;28;20043;-64
2023/08/16 00:16:26;;;;;;;3.33;2.10;;;;;;;;;;5113254;28;20062;-64
2023/08/16 00:18:52;;;;;;;4.18;2.42;;;;;;;;;;5111595;28;20039;-64
2023/08/16 00:21:18;;;;;;;4.80;2.40;;;;;;;;;;5113201;28;20069;-63
2023/08/16 00:23:44;;;;;;;3.75;2.35;;;;;;;;;;5112882;28;20070;-64
2023/08/16 00:26:10;;;;;;;4.43;2.67;;;;;;;;;;5113186;28;20075;-65
2023/08/16 00:28:36;;;;;;;5.47;2.97;;;;;;;;;;5112790;28;20044;-64
2023/08/16 00:31:02;;;;;;;5.97;3.00;;;;;;;;;;5113133;28;20040;-66
2023/08/16 00:33:28;;;;;;;4.80;2.95;;;;;;;;;;5113040;28;20100;-63
2023/08/16 00:35:54;;;;;;;3.60;2.42;;;;;;;;;;5113123;28;20499;-64
2023/08/16 00:38:20;;;;;;;5.88;2.83;;;;;;;;;;5113107;28;20070;-63
2023/08/16 00:40:50;;;;;;;5.63;3.20;;;;;;;;;;5113088;28;20089;-64
2023/08/16 00:43:16;;;;;;;3.65;2.88;;;;;;;;;;5112714;28;20043;-63
2023/08/16 00:45:43;;;;;;;5.47;3.10;;;;;;;;;;5113076;28;20047;-65
2023/08/16 00:48:09;;;;;;;5.85;2.83;;;;;;;;;;5112889;28;20040;-64
2023/08/16 00:50:35;;;;;;;4.88;2.88;;;;;;;;;;5112591;28;20079;-64
2023/08/16 00:53:01;;;;;;;3.70;2.72;;;;;;;;;;5112964;28;20122;-64
2023/08/16 00:55:27;;;;;;;6.15;2.97;;;;;;;;;;5114864;28;20035;-64
2023/08/16 00:57:54;;;;;;;4.68;3.10;;;;;;;;;;5116547;28;20043;-64
2023/08/16 01:00:20;;;;;;;6.82;3.20;;;;;;;;;;5116564;28;20044;-64
2023/08/16 01:02:46;;;;;;;3.78;2.65;;;;;;;;;;5116475;28;20042;-64
2023/08/16 01:05:12;;;;;;;6.22;3.05;;;;;;;;;;5114935;28;20076;-65
2023/08/16 01:07:38;;;;;;;4.93;2.78;;;;;;;;;;5113406;28;20087;-64
2023/08/16 01:10:04;;;;;;;5.57;2.65;;;;;;;;;;5113888;28;20124;-64
2023/08/16 01:12:37;;;;;;;5.55;3.13;;;;;;;;;;5114862;28;20036;-64
2023/08/16 01:15:08;;;;;;;6.57;3.03;;;;;;;;;;5115050;28;20040;-64
2023/08/16 01:17:35;;;;;;;5.53;2.70;;;;;;;;;;5115026;28;20036;-64
2023/08/16 01:20:03;;;;;;;5.72;3.42;;;;;;;;;;5114982;28;20077;-64
2023/08/16 01:22:29;;;;;;;7.53;3.22;;;;;;;;;;5113444;28;20055;-64
2023/08/16 01:25:02;;;;;;;9.52;3.22;;;;;;;;;;5096652;28;20046;-64
2023/08/16 01:27:28;;;;;;;7.15;3.55;;;;;;;;;;5114831;28;20123;-64
2023/08/16 01:29:55;;;;;;;4.63;3.08;;;;;;;;;;5114790;28;20493;-64
2023/08/16 01:32:23;;;;;;;5.88;3.25;;;;;;;;;;5114829;28;20566;-64
2023/08/16 01:34:49;;;;;;;7.57;3.42;;;;;;;;;;5114758;28;20035;-64
2023/08/16 01:37:15;;;;;;;7.05;3.33;;;;;;;;;;5113308;28;20074;-67
2023/08/16 01:39:41;;;;;;;6.07;3.00;;;;;;;;;;5114648;28;20082;-69
2023/08/16 01:42:09;;;;;;;4.38;3.10;;;;;;;;;;5114634;28;20039;-64
2023/08/16 01:44:35;;;;;;;6.53;3.58;;;;;;;;;;5114655;28;20406;-64
2023/08/16 01:47:02;;;;;;;6.22;3.35;;;;;;;;;;5114521;28;20380;-63
2023/08/16 01:49:28;;;;;;;4.53;3.13;;;;;;;;;;5114533;28;20364;-65
2023/08/16 01:51:54;;;;;;;7.70;3.20;;;;;;;;;;5112963;28;20040;-64
2023/08/16 01:54:20;;;;;;;4.28;2.75;;;14.10;95.20;;;;;;5114426;28;20391;-64
2023/08/16 01:56:45;;;;;;;4.68;3.13;;;13.90;99.60;;;;;;5114508;28;20035;-64
2023/08/16 01:59:11;;;;;;;6.78;2.72;;;13.90;99.90;;;;;;5114059;28;20445;-64
2023/08/16 02:01:36;;;;;;;4.50;2.65;;;14.00;99.90;;;;;;5114398;28;20036;-64
2023/08/16 02:04:02;;;;;;;5.50;3.17;;;13.80;99.90;;;;;;5114129;28;20043;-64
2023/08/16 02:06:29;;;;;;;6.20;3.50;;;13.70;99.90;;;;;;5076521;28;1047253;-64
2023/08/16 02:08:54;;;;;;;3.97;2.97;;;13.70;99.90;;;;;;5113501;28;20043;-64
2023/08/16 02:11:20;;;;;;;7.00;3.35;;;13.60;99.90;;;;;;5115171;28;20039;-64
2023/08/16 02:13:46;;;;;;;7.85;3.20;;;14.10;99.90;;;;;;5115140;28;20039;-64
2023/08/16 02:16:12;;;;;;;5.43;3.33;;;13.60;99.90;;;;;;5115053;28;20028;-64
2023/08/16 02:18:38;;;;;;;7.20;3.50;;;13.60;99.90;;;;;;5114951;28;20040;-64
2023/08/16 02:21:03;;;;;;;9.70;3.30;;;13.60;99.90;;;;;;5114910;28;20092;-67
2023/08/16 02:23:29;;;;;;;7.72;3.08;;;13.60;99.90;;;;;;5114941;28;20491;-64
2023/08/16 02:25:55;;;;;;;5.25;2.47;;;13.60;99.90;;;;;;5114846;28;20039;-63
2023/08/16 02:28:20;;;;;;;4.38;2.67;;;13.50;99.90;;;;;;5113147;28;20044;-64
2023/08/16 02:30:46;;;;;;;7.03;3.10;;;13.50;99.90;;;;;;5114390;28;20043;-64
2023/08/16 02:33:12;;;;;;;5.63;3.00;;;13.50;99.90;;;;;;5114692;28;20036;-64
2023/08/16 02:35:38;;;;;;;6.45;3.20;;;13.60;99.90;;;;;;5114666;28;20123;-64
2023/08/16 02:38:03;;;;;;;6.93;2.80;;;13.50;99.90;;;;;;5114597;28;20122;-64
2023/08/16 02:40:29;;;;;;;6.07;3.38;;;13.50;99.90;;;;;;5113126;28;20039;-64
2023/08/16 02:42:54;;;;;;;7.35;3.20;;;13.90;99.90;;;;;;5114490;28;20068;-63
2023/08/16 02:45:20;;;;;;;7.57;3.47;;;13.40;99.90;;;;;;5114495;28;20062;-64
2023/08/16 02:47:47;;;;;;;4.47;2.80;;;13.40;99.90;;;;;;5114443;28;20042;-64
2023/08/16 02:50:13;;;;;;;4.82;2.90;;;13.40;99.90;;;;;;5114347;28;20040;-64
2023/08/16 02:52:39;;;;;;;6.10;3.17;;;13.40;99.90;;;;;;5113144;28;20440;-64
2023/08/16 02:55:05;;;;;;;5.68;3.13;;;13.40;99.90;;;;;;5114191;28;20395;-64
2023/08/16 02:57:30;;;;;;;6.30;3.60;;;13.40;99.90;;;;;;5114272;28;20042;-66
2023/08/16 02:59:56;;;;;;;8.07;3.53;;;13.40;99.90;;;;;;5114250;28;20043;-66
2023/08/16 03:02:21;;;;;;;8.30;3.95;;;13.40;99.90;;;;;;5112962;28;20122;-66
2023/08/16 03:04:47;;;;;;;7.40;3.90;;;13.40;99.90;;;;;;5112444;28;20043;-68
2023/08/16 03:07:13;;;;;;;7.00;3.58;;;13.40;99.90;;;;;;5113731;28;20059;-64
2023/08/16 03:09:39;;;;;;;7.80;4.03;;;13.50;99.90;;;;;;5112719;28;20122;-63
2023/08/16 03:12:06;;;;;;;11.07;4.40;;;13.70;99.90;;;;;;5113966;28;20048;-63
2023/08/16 03:14:31;;;;;;;7.78;5.00;;;13.50;99.90;;;;;;5113920;28;20038;-64
2023/08/16 03:16:57;;;;;;;9.60;6.88;;;13.60;99.90;;;;;;5113818;28;20039;-64
2023/08/16 03:19:23;;;;;;;10.68;6.65;;;13.60;99.90;;;;;;5113725;28;20043;-64
2023/08/16 03:21:49;;;;;;;8.98;5.78;;;13.70;99.90;;;;;;5113564;28;20403;-63
2023/08/16 03:24:15;;;;;;;8.90;6.55;;;13.70;99.90;;;;;;5113843;28;20039;-64
2023/08/16 03:26:40;;;;;;;11.25;5.93;;;13.70;99.90;;;;;;5113441;28;20126;-64
2023/08/16 03:29:06;;;;;;;13.55;6.32;;;13.70;99.90;;;;;;5113416;28;20036;-64
2023/08/16 03:31:32;;;;;;;9.18;6.30;;;13.70;99.90;;;;;;5113730;28;20039;-64
2023/08/16 03:33:57;;;;;;;9.65;5.47;;;13.70;99.90;;;;;;5112655;28;20043;-64
2023/08/16 03:36:24;;;;;;;8.88;5.25;;;13.70;99.90;;;;;;5113636;28;20039;-63
2023/08/16 03:38:50;;;;;;;8.70;5.72;;;13.70;99.90;;;;;;5113590;28;20039;-64
2023/08/16 03:41:15;;;;;;;6.53;5.35;;;13.70;99.90;;;;;;5113606;28;20398;-64
2023/08/16 03:43:41;;;;;;;9.80;5.85;;;13.70;99.90;;;;;;5113258;28;20047;-64
2023/08/16 03:46:07;;;;;;;11.32;5.57;;;13.70;99.90;;;;;;5113227;28;20040;-64
2023/08/16 03:48:33;;;;;;;8.00;5.47;;;13.90;99.90;;;;;;5113458;28;20088;-64
2023/08/16 03:50:58;;;;;;;6.78;5.15;;;13.70;99.90;;;;;;5113554;28;20061;-64
2023/08/16 03:53:24;;;;;;;9.57;6.45;;;13.70;99.90;;;;;;5113540;28;20036;-64
2023/08/16 03:55:56;;;;;;;10.80;5.53;;;13.70;99.90;;;;;;5113482;28;20075;-64
2023/08/16 03:58:22;;;;;;;8.40;4.97;;;13.70;99.90;;;;;;5113441;28;20118;-64
2023/08/16 04:00:48;;;;;;;8.60;5.80;;;13.70;99.90;;;;;;5113392;28;20115;-64
2023/08/16 04:03:14;;;;;;;11.45;5.70;;;13.70;99.90;;;;;;5113073;28;20039;-64
2023/08/16 04:05:39;;;;;;;8.45;5.45;;;13.60;99.90;;;;;;5113211;28;20052;-63
2023/08/16 04:08:05;;;;;;;9.20;5.40;;;13.60;99.90;;;;;;5113349;28;20055;-66
2023/08/16 04:10:30;;;;;;;7.88;4.90;;;13.60;99.90;;;;;;5113086;28;20032;-66
2023/08/16 04:12:56;;;;;;;9.15;5.57;;;13.60;99.90;;;;;;5113261;28;20069;-66
2023/08/16 04:15:22;;;;;;;7.45;4.72;;;13.60;99.90;;;;;;5113246;28;20387;-66
2023/08/16 04:17:47;;;;;;;8.27;5.53;;;13.60;99.90;;;;;;5113419;28;20039;-64
2023/08/16 04:20:13;;;;;;;6.57;4.95;;;13.60;99.90;;;;;;5113281;28;20145;-64
2023/08/16 04:22:38;;;;;;;10.00;4.72;;;13.60;99.90;;;;;;5113237;28;20398;-63
2023/08/16 04:25:04;;;;;;;7.25;4.95;;;13.50;99.90;;;;;;5111570;28;20040;-63
2023/08/16 04:27:30;;;;;;;7.80;4.68;;;13.50;99.90;;;;;;5112791;28;20486;-64
2023/08/16 04:29:56;;;;;;;8.63;4.90;;;13.50;99.90;;;;;;5114302;28;20071;-64
2023/08/16 04:32:21;;;;;;;7.72;4.60;;;13.50;99.90;;;;;;5117101;28;20042;-64
2023/08/16 04:34:47;;;;;;;6.40;4.68;;;13.50;99.90;;;;;;5116784;28;20430;-64
2023/08/16 04:37:13;;;;;;;8.80;4.57;;;13.50;99.90;;;;;;5117041;28;20046;-63
2023/08/16 04:39:38;;;;;;;7.18;5.10;;;13.50;99.90;;;;;;5116977;28;20067;-64
2023/08/16 04:42:04;;;;;;;7.70;5.18;;;13.50;99.90;;;;;;5116575;28;20487;-64
2023/08/16 04:44:30;;;;;;;6.88;4.75;;;13.50;99.90;;;;;;5116954;28;20036;-64
2023/08/16 04:46:55;;;;;;;8.07;5.15;;;13.50;99.90;;;;;;5116486;28;20043;-64
2023/08/16 04:49:22;;;;;;;7.68;5.22;;;13.50;99.90;;;;;;5116825;28;20111;-64
2023/08/16 04:51:47;;;;;;;6.45;4.80;;;13.50;99.90;;;;;;5116806;28;20067;-64
2023/08/16 04:54:13;;;;;;;6.57;4.50;;;13.50;99.90;;;;;;5116516;28;20082;-64
2023/08/16 04:56:38;;;;;;;9.63;5.45;;;13.50;99.90;;;;;;5116673;28;20079;-64
2023/08/16 04:59:04;;;;;;;6.65;5.20;;;13.40;99.90;;;;;;5116282;28;20081;-64
2023/08/16 05:01:30;;;;;;;6.97;4.70;;;13.50;99.90;;;;;;5114968;28;20042;-64
2023/08/16 05:03:56;;;;;;;6.60;5.10;;;13.40;99.90;;;;;;5115290;28;20088;-64
2023/08/16 05:06:21;;;;;;;8.00;5.07;;;13.50;99.90;;;;;;5116225;28;20150;-63
2023/08/16 05:08:47;;;;;;;6.22;4.70;;;13.50;99.90;;;;;;5115936;28;20554;-64
2023/08/16 05:11:12;;;;;;;8.80;4.65;;;13.50;99.90;;;;;;5116354;28;20039;-64
2023/08/16 05:13:38;;;;;;;6.18;4.70;;;13.60;99.90;;;;;;5116397;28;20043;-64
2023/08/16 05:16:04;;;;;;;7.40;4.15;;;13.60;99.90;;;;;;5116322;28;20596;-64
2023/08/16 05:18:29;;;;;;;6.15;4.40;;;13.60;99.90;;;;;;5116370;28;20097;-66
2023/08/16 05:20:56;;;;;;;5.25;3.80;;;13.70;99.90;;;;;;5115814;28;20478;-66
2023/08/16 05:23:22;;;;;;;4.40;3.65;;;13.70;99.90;;;;;;5116088;28;20039;-66
2023/08/16 05:25:48;;;;;;;5.00;3.63;;;13.70;99.90;;;;;;5115867;28;20108;-67
2023/08/16 05:28:14;;;;;;;7.78;4.80;;;13.80;99.90;;;;;;5116011;28;20036;-65
2023/08/16 05:30:39;;;;;;;6.05;4.03;;;13.80;99.90;;;;;;5115743;28;20032;-63
2023/08/16 05:33:05;;;;;;;6.65;4.13;;;13.90;99.90;;;;;;5115588;28;20406;-63
2023/08/16 05:35:34;;;;;;;4.68;3.72;;;14.00;99.90;;;;;;5115625;28;20035;-64
2023/08/16 05:38:00;;;;;;;5.38;3.80;;;14.10;99.90;;;;;;5115552;28;20036;-64
2023/08/16 05:40:26;;;;;;;6.00;4.20;;;14.30;99.90;;;;;;5114273;28;20035;-63
2023/08/16 05:42:51;;;;;;;5.00;3.47;;;14.40;99.90;;;;;;5115474;28;20036;-63
2023/08/16 05:45:17;;;;;;;9.25;4.50;;;14.40;99.90;;;;;;5115599;28;20071;-64
2023/08/16 05:47:42;;;;;;;6.60;4.68;;;14.60;99.90;;;;;;5115553;28;20400;-64
2023/08/16 05:50:09;;;;;;;6.55;4.18;;;15.10;99.90;;;;;;5115598;28;20039;-63
2023/08/16 05:52:34;;;;;;;8.50;4.90;;;14.70;99.90;;;;;;5113974;28;20368;-63
2023/08/16 05:55:00;;;;;;;5.93;4.35;;;14.80;99.90;;;;;;5115457;28;20042;-64
2023/08/16 05:57:26;;;;;;;10.32;4.70;;;14.90;99.90;;;;;;5115506;28;20083;-66
2023/08/16 05:59:51;;;;;;;6.20;4.10;;;15.00;99.90;;;;;;5115104;28;20059;-64
2023/08/16 06:02:17;;;;;;;8.90;5.07;;;15.20;99.90;;;;;;5115396;28;20043;-63
2023/08/16 06:04:42;;;;;;;8.10;4.53;;;15.30;99.90;;;;;;5115009;28;20548;-64
2023/08/16 06:07:08;;;;;;;7.32;4.43;;;15.20;99.90;;;;;;5113417;28;20052;-64
2023/08/16 06:09:34;;;;;;;5.53;4.30;;;15.50;99.90;;;;;;5115031;28;20044;-63
2023/08/16 06:12:00;;;;;;;11.77;5.20;;;15.70;99.90;;;;;;5114863;28;20042;-64
2023/08/16 06:14:26;;;;;;;8.93;4.55;;;15.70;99.90;;;;;;5115167;28;20097;-64
2023/08/16 06:16:52;;;;;;;9.50;4.13;;;;;;;;;;5113592;28;20047;-64
2023/08/16 06:19:17;;;;;;;9.38;4.93;;;16.00;99.90;;;;;;5114684;28;20493;-64
2023/08/16 06:21:43;;;;;;;8.88;5.38;;;;;;;;;;5115033;28;20114;-64
2023/08/16 06:24:10;;;;;;;10.57;4.82;;;16.20;99.90;;;;;;5114777;28;20048;-64
2023/08/16 06:26:35;;;;;;;6.63;4.38;;;16.30;99.90;;;;;;5114846;28;20040;-64
2023/08/16 06:29:01;;;;;;;7.00;4.68;;;16.40;99.90;;;;;;5114498;28;20084;-64
2023/08/16 06:31:27;;;;;;;8.45;5.00;;;16.50;99.90;;;;;;5114445;28;20047;-64
2023/08/16 06:33:53;;;;;;;11.00;4.60;;;16.50;99.90;;;;;;5113227;28;20039;-64
2023/08/16 06:36:19;;;;;;;6.60;4.68;;;16.60;99.90;;;;;;5114670;28;20123;-64
2023/08/16 06:38:44;;;;;;;6.50;4.75;;;16.70;99.90;;;;;;5114714;28;20054;-66
2023/08/16 06:41:10;;;;;;;8.48;4.80;;;16.70;99.90;;;;;;5114556;28;20119;-66
2023/08/16 06:43:36;;;;;;;9.95;4.82;;;16.80;99.90;;;;;;5114394;28;20039;-67
2023/08/16 06:46:01;;;;;;;7.03;3.90;;;16.90;99.90;;;;;;5114565;28;20577;-66
2023/08/16 06:48:27;;;;;;;8.57;5.07;;;17.00;99.90;;;;;;5114435;28;20071;-66
2023/08/16 06:50:53;;;;;;;5.97;4.47;;;17.10;99.90;;;;;;5114132;28;20047;-66
2023/08/16 06:53:19;;;;;;;9.90;4.53;;;17.20;99.90;;;;;;5095513;28;20115;-66
2023/08/16 06:55:45;;;;;;;8.15;4.53;;;17.30;99.90;;;;;;5113884;28;20031;-66
2023/08/16 06:58:10;;;;;;;6.82;4.95;;;17.20;99.90;;;;;;5112727;28;20082;-65
2023/08/16 07:00:36;;;;;;;8.52;5.00;;;17.30;99.90;;;;;;5114032;28;20458;-65
2023/08/16 07:03:02;;;;;;;11.38;5.10;;;17.30;99.90;;;;;;5114139;28;20062;-65
2023/08/16 07:05:28;;;;;;;6.05;4.13;;;17.30;99.90;;;;;;5113975;28;20119;-65
2023/08/16 07:07:55;;;;;;;7.18;4.22;;;17.40;99.90;;;;;;5114070;28;20139;-65
2023/08/16 07:10:21;;;;;;;7.78;4.03;;;17.30;99.90;;;;;;5113794;28;20057;-66
2023/08/16 07:12:47;;;;;;;7.15;4.22;;;17.40;99.90;;;;;;5114010;28;20110;-66
2023/08/16 07:15:13;;;;;;;7.93;4.00;;;17.50;99.90;;;;;;5113965;28;20063;-65
2023/08/16 07:17:39;;;;;;;6.32;4.32;;;17.50;99.90;;;;;;5114008;28;20410;-66
2023/08/16 07:20:08;;;;;;;8.63;4.38;;;17.60;99.90;;;;;;5113918;28;20036;-66
2023/08/16 07:22:36;;;;;;;7.57;3.55;;;17.70;99.90;;;;;;5113861;28;20071;-66
2023/08/16 07:25:02;;;;;;;8.90;4.93;;;17.80;99.90;;;;;;5113804;28;20039;-68
2023/08/16 07:27:28;;;;;;;10.75;5.43;;;18.10;99.90;;;;;;5113781;28;20035;-66
2023/08/16 07:29:53;;;;;;;10.70;5.20;;;17.80;99.90;;;;;;5113574;28;20046;-65
2023/08/16 07:32:19;;;;;;;7.68;4.40;;;17.80;99.90;;;;;;5113331;28;20031;-66
2023/08/16 07:34:44;;;;;;;9.50;4.43;;;18.00;99.90;;;;;;5113680;28;20031;-66
2023/08/16 07:37:11;;;;;;;6.95;3.55;;;17.90;99.90;;;;;;5113675;28;20113;-66
2023/08/16 07:39:36;;;;;;;5.65;3.85;;;18.60;99.90;;;;;;5113802;28;20404;-65
2023/08/16 07:42:02;;;;;;;8.27;4.40;;;18.30;99.90;;;;;;5113583;28;20039;-66
2023/08/16 07:44:28;;;;;;;6.53;4.05;;;18.30;99.90;;;;;;5113462;28;20403;-66
2023/08/16 07:46:53;;;;;;;8.13;4.75;;;18.30;99.90;;;;;;5113505;28;20437;-66
2023/08/16 07:49:19;;;;;;;10.07;4.57;;;18.40;99.90;;;;;;5113523;28;20040;-66
2023/08/16 07:51:45;;;;;;;9.57;4.47;;;18.60;99.90;;;;;;5113576;28;20023;-66
2023/08/16 07:54:11;;;;;;;8.65;4.82;;;18.80;99.90;;;;;;5113174;28;20039;-66
2023/08/16 07:56:37;;;;;;;6.50;4.55;;;18.80;99.90;;;;;;5113409;28;20526;-66
2023/08/16 07:59:02;;;;;;;7.22;4.25;;;19.10;99.90;;;;;;5113052;28;20038;-66
2023/08/16 08:01:28;;;;;;;9.45;4.93;;;19.10;99.90;;;;;;5113423;28;20164;-66
2023/08/16 08:03:54;;;;;;;6.53;4.07;;;19.10;99.90;;;;;;5113114;28;20039;-66
2023/08/16 08:06:19;;;;;;;12.38;4.47;;;19.20;99.90;;;;;;5116629;28;20054;-67
2023/08/16 08:08:45;;;;;;;7.90;3.03;;;19.40;99.90;;;;;;5116238;28;20123;-66
2023/08/16 08:11:10;;;;;;;6.80;4.10;;;19.50;99.90;;;;;;5117409;28;20489;-66
2023/08/16 08:13:37;;;;;;;5.05;3.65;;;19.60;99.90;;;;;;5117167;28;20096;-66
2023/08/16 08:16:03;;;;;;;9.02;4.70;;;19.70;99.90;;;;;;5117415;28;20057;-66
2023/08/16 08:18:29;;;;;;;5.68;3.85;;;19.90;99.90;;;;;;5116046;28;20051;-66
2023/08/16 08:20:55;;;;;;;6.63;3.40;;;20.00;99.90;;;;;;5117315;28;20479;-66
2023/08/16 08:23:21;;;;;;;7.18;3.65;;;20.10;99.90;;;;;;5117244;28;20134;-66
2023/08/16 08:25:47;;;;;;;6.85;3.70;;;20.60;99.90;;;;;;5117277;28;20507;-66
2023/08/16 08:28:13;;;;;;;5.93;3.00;;;20.00;99.90;;;;;;5116821;28;20398;-66
2023/08/16 08:30:41;;;;;;;4.72;3.05;;;19.90;99.90;;;;;;5116857;28;20114;-66
2023/08/16 08:33:07;;;;;;;8.05;2.75;;;19.80;99.90;;;;;;5115480;28;20449;-66
2023/08/16 08:35:33;;;;;;;4.75;3.00;;;20.10;99.90;;;;;;5117087;28;20036;-66
2023/08/16 08:37:59;;;;;;;5.13;2.97;;;20.20;99.90;;;;;;5116848;28;20055;-66
2023/08/16 08:40:27;;;;;;;5.60;3.10;;;20.30;99.90;;;;;;5116667;28;20047;-66
2023/08/16 08:42:54;;;;;;;7.38;3.25;;;20.10;99.90;;;;;;5116955;28;20119;-66
2023/08/16 08:45:20;;;;;;;3.03;2.58;;;20.40;99.90;;;;;;5116909;28;20058;-66
2023/08/16 08:47:47;;;;;;;6.57;2.72;;;20.50;99.80;;;;;;5116774;28;20467;-66
2023/08/16 08:50:13;;;;;;;3.97;2.67;;;20.50;99.70;;;;;;5116952;28;20043;-64
2023/08/16 08:52:38;;;;;;;4.65;1.88;;;20.30;96.60;;;;;;5116768;28;20386;-68
2023/08/16 08:55:04;;;;;;;5.13;1.52;;;20.50;96.90;;;;;;5116420;28;20497;-64
2023/08/16 08:57:32;;;;;;;3.13;2.10;;;20.40;93.80;;;;;;5116690;28;20234;-64
2023/08/16 09:00:00;;;;;;;4.43;1.42;;;20.60;92.40;;;;;;5116418;28;20403;-65
2023/08/16 09:02:29;;;;;;;4.85;1.70;;;20.40;94.00;;;;;;5116727;28;20036;-66
2023/08/16 09:04:59;;;;;;;2.97;1.73;;;20.40;93.90;;;;;;5116420;28;20112;-66
2023/08/16 09:07:25;;;;;;;2.78;1.75;;;20.60;93.30;;;;;;5116107;28;20043;-66
2023/08/16 09:09:53;;;;;;;3.13;1.52;;;20.60;92.00;;;;;;5115153;28;20398;-66
2023/08/16 09:12:19;;;;;;;4.68;2.00;;;20.60;92.20;;;;;;5116127;28;20096;-66
2023/08/16 09:14:45;;;;;;;5.85;1.90;;;20.80;92.10;;;;;;5116046;28;20047;-66
2023/08/16 09:17:10;;;;;;;4.20;2.00;;;20.80;92.60;;;;;;5115869;28;20043;-67
2023/08/16 09:19:44;;;;;;;4.10;1.90;;;20.80;87.90;;;;;;5116317;28;20046;-66
2023/08/16 09:22:11;;;;;;;4.75;1.98;;;20.90;88.50;;;;;;5115882;28;20039;-66
2023/08/16 09:24:40;;;;;;;4.00;1.92;;;21.00;89.10;;;;;;5114898;28;20560;-66
2023/08/16 09:27:06;;;;;;;4.75;1.73;;;21.00;89.40;;;;;;5115697;28;20046;-66
2023/08/16 09:29:31;;;;;;;2.90;1.80;;;21.10;87.90;;;;;;5116039;28;20032;-66
2023/08/16 09:31:57;;;;;;;5.15;2.50;;;21.00;81.20;;;;;;5115979;28;20044;-66
2023/08/16 09:34:24;;;;;;;3.97;2.17;;;21.10;82.40;;;;;;5115961;28;20058;-67
2023/08/16 09:36:51;;;;;;;2.97;1.65;;;21.20;85.20;;;;;;5115673;28;20035;-67
2023/08/16 09:39:17;;;;;;;2.90;1.70;;;21.40;79.50;;;;;;5115866;28;20035;-67
2023/08/16 09:41:50;;;;;;;3.80;1.67;;;21.50;80.60;;;;;;5114391;28;20047;-67
2023/08/16 09:44:15;;;;;;;7.30;1.80;;;21.70;76.70;;;;;;5114494;28;20038;-68
2023/08/16 09:46:41;;;;;;;3.65;1.70;;;21.60;55.90;;;;;;5115696;28;20479;-66
2023/08/16 09:49:09;;;;;;;5.00;2.08;;;21.70;63.50;;;;;;5115385;28;20077;-65
2023/08/16 09:51:40;;;;;;;4.03;1.83;;;21.70;56.70;;;;;;5115951;28;20039;-65
2023/08/16 09:54:12;;;;;;;;;;;21.70;99.90;;;;;;5115592;28;20044;-65
2023/08/16 09:56:38;;;;;;;2.85;1.45;;;21.70;1.00;;;;;;5114365;28;20466;-65
2023/08/16 09:59:07;;;;;;;3.33;1.80;;;21.80;99.90;;;;;;5115839;28;20080;-65
2023/08/16 10:01:33;;;;;;;2.42;1.25;;;21.70;1.00;;;;;;5114221;28;20044;-63
2023/08/16 10:04:01;;;;;;;2.00;1.00;;;21.80;99.90;;;;;;5113833;28;20044;-63
2023/08/16 10:06:31;;;;;;;4.03;1.52;;;21.70;99.90;;;;;;5113801;28;20491;-63
2023/08/16 10:08:57;;;;;;;4.32;1.50;;;21.80;10.10;;;;;;5113585;28;20556;-63
2023/08/16 10:11:24;;;;;;;2.33;1.33;;;22.30;99.90;;;;;;5115453;28;20097;-63
2023/08/16 10:13:50;;;;;;;4.40;1.40;;;21.70;99.90;;;;;;5113907;28;20078;-63
2023/08/16 10:16:18;;;;;;;2.67;1.42;;;21.60;1.00;;;;;;5115210;28;20088;-63
2023/08/16 10:18:46;;;;;;;2.63;1.55;;;21.70;45.40;;;;;;5113749;28;20372;-63
2023/08/16 10:21:18;;;;;;;3.63;1.65;;;21.70;1.00;;;;;;5115034;28;20043;-63
2023/08/16 10:23:45;;;;;;;4.40;1.73;;;21.90;1.00;;;;;;5114736;28;20093;-63
2023/08/16 10:26:15;;;;;;;3.17;1.92;;;21.70;99.90;;;;;;5113385;28;20047;-63
2023/08/16 10:28:46;;;;;;;4.88;1.85;;;21.80;99.90;;;;;;5114088;28;20047;-63
2023/08/16 10:31:16;;;;;;;3.72;2.05;;;21.90;1.00;;;;;;5114823;28;20036;-63
2023/08/16 10:33:46;;;;;;;3.70;2.00;;;21.80;99.90;;;;;;5114907;28;20040;-63
2023/08/16 10:36:12;;;;;;;2.47;1.67;;;21.90;99.90;;;;;;5114605;28;20578;-63
2023/08/16 10:38:42;;;;;;;4.07;2.13;;;22.00;99.90;;;;;;5113106;28;20414;-64
2023/08/16 10:41:15;;;;;;;3.15;2.30;;;22.00;99.90;;;;;;5114731;28;20040;-64
2023/08/16 10:43:51;;;;;;;3.33;2.10;;;21.90;1.00;;;;;;5114626;28;20129;-63
2023/08/16 10:46:35;;;;;;;3.30;1.95;;;22.00;68.80;;;;;;5114597;28;20039;-64
2023/08/16 10:49:03;;;;;;;5.03;1.75;;;22.00;52.00;;;;;;5113038;28;20047;-63
2023/08/16 10:51:30;;;;;;;2.83;2.15;;;22.00;1.00;;;;;;5114497;28;20027;-64
2023/08/16 10:53:57;;;;;;;3.10;1.83;;;22.00;1.00;;;;;;5114194;28;20027;-64
2023/08/16 10:56:23;;;;;;;6.03;1.90;;;22.00;1.00;;;;;;5114020;28;20391;-68
2023/08/16 10:58:50;;;;;;;3.70;1.98;;;22.00;5.00;;;;;;5114194;28;20032;-63
2023/08/16 11:01:17;;;;;;;4.55;2.20;;;21.80;1.00;;;;;;5113932;28;20036;-64
2023/08/16 11:03:49;;;;;;;3.03;1.63;;;22.10;99.90;;;;;;5113736;28;20039;-64
2023/08/16 11:06:18;;;;;;;2.90;1.88;;;22.10;99.90;;;;;;5113586;28;20044;-63
2023/08/16 11:08:45;;;;;;;3.05;1.70;;;22.20;1.00;;;;;;5113973;28;20554;-64
2023/08/16 11:11:12;;;;;;;2.17;1.60;;;22.20;99.90;;;;;;5113953;28;20086;-66
2023/08/16 11:13:42;;;;;;;2.70;1.50;;;22.10;99.90;;;;;;5113985;28;20605;-63
2023/08/16 11:16:10;;;;;;;3.47;1.52;;;22.30;99.90;;;;;;5113590;28;20079;-64
2023/08/16 11:18:37;;;;;;;5.03;1.85;;;22.40;1.00;;;;;;5113431;28;20040;-63
2023/08/16 11:21:07;;;;;;;4.85;1.33;;;22.40;1.00;;;;;;5113619;28;20082;-64
2023/08/16 11:23:33;;;;;;;2.13;1.25;;;;;;;;;;5113648;28;20061;-63
2023/08/16 11:26:00;;;;;;;1.77;1.23;;;22.80;18.00;;;;;;5113452;28;20084;-64
2023/08/16 11:28:27;;;;;;;2.40;1.27;;;22.90;1.00;;;;;;5112439;28;20034;-63
2023/08/16 11:30:57;;;;;;;1.73;1.17;;;22.90;1.00;;;;;;5113708;28;20031;-63
2023/08/16 11:33:22;;;;;;;2.60;0.95;;;23.00;99.90;;;;;;5113435;28;20036;-66
2023/08/16 11:35:48;;;;;;;2.05;1.02;;;22.90;99.90;;;;;;5113347;28;20054;-66
2023/08/16 11:38:17;;;;;;;2.10;1.10;;;22.90;99.90;;;;;;5112013;28;20046;-65
2023/08/16 11:40:47;;;;;;;3.15;1.27;;;22.80;99.90;;;;;;5095049;28;20035;-66
2023/08/16 11:43:13;;;;;;;4.03;1.10;;;22.80;99.90;;;;;;5113678;28;20085;-64
2023/08/16 11:45:39;;;;;;;4.57;1.33;;;22.90;99.90;;;;;;5095228;28;20433;-64
2023/08/16 11:48:05;;;;;;;4.72;1.60;;;23.00;99.90;;;;;;5113355;28;20039;-67
2023/08/16 11:50:34;;;;;;;2.33;1.25;;;23.00;99.90;;;;;;5078353;28;20424;-63
2023/08/16 11:53:01;;;;;;;1.50;0.95;;;23.00;99.90;;;;;;5112076;28;20035;-63
2023/08/16 11:55:29;;;;;;;2.30;0.98;;;23.00;99.90;;;;;;5111893;28;20403;-63
2023/08/16 11:58:10;;;;;;;2.05;1.05;;;23.00;99.90;;;;;;5113452;28;20042;-63
2023/08/16 12:00:36;;;;;;;2.90;1.20;;;23.00;99.90;;;;;;5112148;28;20426;-63
2023/08/16 12:03:11;;;;;;;1.98;1.17;;;23.00;99.90;;;;;;5113326;28;20039;-63
2023/08/16 12:05:40;;;;;;;1.27;0.73;;;23.00;99.90;;;;;;5113149;28;20064;-64
2023/08/16 12:08:08;;;;;;;1.70;0.95;;;23.10;99.90;;;;;;5113224;28;20097;-64
2023/08/16 12:10:34;;;;;;;3.40;1.02;;;23.00;99.90;;;;;;5113018;28;20042;-63
2023/08/16 12:13:21;;;;;;;2.42;0.90;;;22.80;99.90;;;;;;5113153;28;20483;-63
2023/08/16 12:15:47;;;;;;;2.70;1.13;;;22.50;60.80;;;;;;5112886;28;20036;-63
2023/08/16 12:18:16;;;;;;;1.33;0.85;;;22.50;83.20;;;;;;5113259;28;20135;-63
2023/08/16 12:20:43;;;;;;;3.58;1.00;;;22.60;96.20;;;;;;5113220;28;20048;-63
2023/08/16 12:23:09;;;;;;;2.25;0.98;;;22.80;99.70;;;;;;5113183;28;20047;-63
2023/08/16 12:25:35;;;;;;;5.35;0.85;;;22.70;99.80;;;;;;5111596;28;20444;-63
2023/08/16 12:28:01;;;;;;;2.63;0.88;;;22.40;97.90;;;;;;5113056;28;20051;-63
2023/08/16 12:30:28;;;;;;;2.03;0.80;;;22.50;99.90;;;;;;5112838;28;20043;-63
2023/08/16 12:32:54;;;;;;;0.57;0.57;;;22.40;97.40;;;;;;5113339;28;20111;-65
2023/08/16 12:35:20;;;;;;;2.72;0.90;;;22.50;99.90;;;;;;5113351;28;20050;-65
2023/08/16 12:37:46;;;;;;;4.03;1.10;;;22.50;97.30;;;;;;5113122;28;20445;-65
2023/08/16 12:40:12;;;;;;;1.90;0.70;;;22.50;96.00;;;;;;5112990;28;20038;-65
2023/08/16 12:42:38;;;;;;;1.65;0.60;;;22.50;72.10;;;;;;5112848;28;20482;-65
2023/08/16 12:45:04;;;;;;;0.85;0.68;;;22.50;24.50;;;;;;5113150;28;20039;-65
2023/08/16 12:47:30;;;;;;;2.65;1.00;;;22.50;1.00;;;;;;5113177;28;20039;-66
2023/08/16 12:49:55;;;;;;;2.60;0.77;;;22.60;10.10;;;;;;5112908;28;20032;-66
2023/08/16 12:52:21;;;;;;;4.38;1.20;;;22.60;1.00;;;;;;5116255;28;20038;-66
2023/08/16 12:54:49;;;;;;;1.45;0.70;;;22.60;1.00;;;;;;5116637;28;20081;-65
2023/08/16 12:57:18;;;;;;;3.35;0.98;;;22.70;1.00;;;;;;5115242;28;20134;-65
2023/08/16 12:59:49;;;;;;;5.20;0.77;;;22.70;1.00;;;;;;5116556;28;20398;-65